sensor_id;sensor_type;location;lat;lon;timestamp;P1;durP1;ratioP1;P2;durP2;ratioP2
34896;SDS011;43407;51.828;-2.298;2023-11-19T00:00:34;47.05;;;7.82;;
34896;SDS011;43407;51.828;-2.298;2023-11-19T00:02:59;46.17;;;7.15;;
34896;SDS011;43407;51.828;-2.298;2023-11-19T00:05:25;39.35;;;6.90;;
34896;SDS011;43407;51.828;-2.298;2023-11-19T00:07:50;45.22;;;7.55;;
34896;SDS011;43407;51.828;-2.298;2023-11-19T00:10:16;42.97;;;7.13;;
34896;SDS011;43407;51.828;-2.298;2023-11-19T00:12:44;41.92;;;7.13;;
34896;SDS011;43407;51.828;-2.298;2023-11-19T00:15:12;43.17;;;7.18;;
34896;SDS011;43407;51.828;-2.298;2023-11-19T00:17:38;39.90;;;7.25;;
34896;SDS011;43407;51.828;-2.298;2023-11-19T00:20:17;47.20;;;6.97;;
34896;SDS011;43407;51.828;-2.298;2023-11-19T00:22:43;34.28;;;7.03;;
34896;SDS011;43407;51.828;-2.298;2023-11-19T00:25:09;36.17;;;6.68;;
34896;SDS011;43407;51.828;-2.298;2023-11-19T00:27:35;31.63;;;6.10;;
34896;SDS011;43407;51.828;-2.298;2023-11-19T00:30:02;43.05;;;7.65;;
34896;SDS011;43407;51.828;-2.298;2023-11-19T00:32:30;42.03;;;7.57;;
34896;SDS011;43407;51.828;-2.298;2023-11-19T00:34:56;36.50;;;7.90;;
34896;SDS011;43407;51.828;-2.298;2023-11-19T00:37:22;43.35;;;8.15;;
34896;SDS011;43407;51.828;-2.298;2023-11-19T00:39:47;46.72;;;7.40;;
34896;SDS011;43407;51.828;-2.298;2023-11-19T00:42:13;38.90;;;7.43;;
34896;SDS011;43407;51.828;-2.298;2023-11-19T00:44:39;41.20;;;7.45;;
34896;SDS011;43407;51.828;-2.298;2023-11-19T00:47:04;42.97;;;7.80;;
34896;SDS011;43407;51.828;-2.298;2023-11-19T00:49:30;39.47;;;7.75;;
34896;SDS011;43407;51.828;-2.298;2023-11-19T00:51:57;41.63;;;7.32;;
34896;SDS011;43407;51.828;-2.298;2023-11-19T00:54:24;40.28;;;7.88;;
34896;SDS011;43407;51.828;-2.298;2023-11-19T00:56:51;33.60;;;6.88;;
34896;SDS011;43407;51.828;-2.298;2023-11-19T00:59:19;41.30;;;7.32;;
34896;SDS011;43407;51.828;-2.298;2023-11-19T01:01:45;40.13;;;7.00;;
34896;SDS011;43407;51.828;-2.298;2023-11-19T01:04:10;28.95;;;6.70;;
34896;SDS011;43407;51.828;-2.298;2023-11-19T01:06:36;39.75;;;7.25;;
34896;SDS011;43407;51.828;-2.298;2023-11-19T01:09:01;37.15;;;6.57;;
34896;SDS011;43407;51.828;-2.298;2023-11-19T01:11:27;46.00;;;8.48;;
34896;SDS011;43407;51.828;-2.298;2023-11-19T01:13:53;44.33;;;6.93;;
34896;SDS011;43407;51.828;-2.298;2023-11-19T01:16:18;35.25;;;7.00;;
34896;SDS011;43407;51.828;-2.298;2023-11-19T01:18:46;45.88;;;7.32;;
34896;SDS011;43407;51.828;-2.298;2023-11-19T01:21:12;34.42;;;5.93;;
34896;SDS011;43407;51.828;-2.298;2023-11-19T01:23:39;37.53;;;7.07;;
34896;SDS011;43407;51.828;-2.298;2023-11-19T01:26:05;41.95;;;6.93;;
34896;SDS011;43407;51.828;-2.298;2023-11-19T01:28:30;42.25;;;7.30;;
34896;SDS011;43407;51.828;-2.298;2023-11-19T01:30:56;34.88;;;6.38;;
34896;SDS011;43407;51.828;-2.298;2023-11-19T01:33:22;38.80;;;6.68;;
34896;SDS011;43407;51.828;-2.298;2023-11-19T01:35:47;46.63;;;6.30;;
34896;SDS011;43407;51.828;-2.298;2023-11-19T01:38:12;44.72;;;7.53;;
34896;SDS011;43407;51.828;-2.298;2023-11-19T01:40:38;43.15;;;7.95;;
34896;SDS011;43407;51.828;-2.298;2023-11-19T01:43:03;38.72;;;6.95;;
34896;SDS011;43407;51.828;-2.298;2023-11-19T01:45:29;36.17;;;6.05;;
34896;SDS011;43407;51.828;-2.298;2023-11-19T01:47:56;33.65;;;6.97;;
34896;SDS011;43407;51.828;-2.298;2023-11-19T01:50:22;39.10;;;7.25;;
34896;SDS011;43407;51.828;-2.298;2023-11-19T01:52:50;40.83;;;8.45;;
34896;SDS011;43407;51.828;-2.298;2023-11-19T01:55:18;39.70;;;7.03;;
34896;SDS011;43407;51.828;-2.298;2023-11-19T01:57:48;46.25;;;7.57;;
34896;SDS011;43407;51.828;-2.298;2023-11-19T02:00:14;36.42;;;7.15;;
34896;SDS011;43407;51.828;-2.298;2023-11-19T02:02:41;41.80;;;6.82;;
34896;SDS011;43407;51.828;-2.298;2023-11-19T02:05:07;35.85;;;7.10;;
34896;SDS011;43407;51.828;-2.298;2023-11-19T02:07:32;34.00;;;6.90;;
34896;SDS011;43407;51.828;-2.298;2023-11-19T02:09:58;46.45;;;6.93;;
34896;SDS011;43407;51.828;-2.298;2023-11-19T02:12:25;35.72;;;7.28;;
34896;SDS011;43407;51.828;-2.298;2023-11-19T02:14:53;30.23;;;5.80;;
34896;SDS011;43407;51.828;-2.298;2023-11-19T02:17:28;37.05;;;7.18;;
34896;SDS011;43407;51.828;-2.298;2023-11-19T02:19:56;35.00;;;6.80;;
34896;SDS011;43407;51.828;-2.298;2023-11-19T02:22:22;36.35;;;6.93;;
34896;SDS011;43407;51.828;-2.298;2023-11-19T02:24:47;36.83;;;7.35;;
34896;SDS011;43407;51.828;-2.298;2023-11-19T02:27:26;35.55;;;7.15;;
34896;SDS011;43407;51.828;-2.298;2023-11-19T02:29:54;46.35;;;8.07;;
34896;SDS011;43407;51.828;-2.298;2023-11-19T02:32:19;40.45;;;8.00;;
34896;SDS011;43407;51.828;-2.298;2023-11-19T02:34:45;38.58;;;6.50;;
34896;SDS011;43407;51.828;-2.298;2023-11-19T02:37:10;41.25;;;7.57;;
34896;SDS011;43407;51.828;-2.298;2023-11-19T02:39:36;37.97;;;6.93;;
34896;SDS011;43407;51.828;-2.298;2023-11-19T02:42:02;37.70;;;7.32;;
34896;SDS011;43407;51.828;-2.298;2023-11-19T02:44:27;40.47;;;7.43;;
34896;SDS011;43407;51.828;-2.298;2023-11-19T02:46:55;39.90;;;7.13;;
34896;SDS011;43407;51.828;-2.298;2023-11-19T02:49:24;40.60;;;6.65;;
34896;SDS011;43407;51.828;-2.298;2023-11-19T02:51:49;42.13;;;6.88;;
34896;SDS011;43407;51.828;-2.298;2023-11-19T02:54:15;29.75;;;5.57;;
34896;SDS011;43407;51.828;-2.298;2023-11-19T02:56:43;37.53;;;6.15;;
34896;SDS011;43407;51.828;-2.298;2023-11-19T02:59:12;45.70;;;6.90;;
34896;SDS011;43407;51.828;-2.298;2023-11-19T03:01:52;38.80;;;6.07;;
34896;SDS011;43407;51.828;-2.298;2023-11-19T03:04:17;37.85;;;6.63;;
34896;SDS011;43407;51.828;-2.298;2023-11-19T03:06:46;41.25;;;6.03;;
34896;SDS011;43407;51.828;-2.298;2023-11-19T03:09:12;37.90;;;6.45;;
34896;SDS011;43407;51.828;-2.298;2023-11-19T03:11:37;35.38;;;6.88;;
34896;SDS011;43407;51.828;-2.298;2023-11-19T03:14:03;33.70;;;6.35;;
34896;SDS011;43407;51.828;-2.298;2023-11-19T03:16:29;39.55;;;7.10;;
34896;SDS011;43407;51.828;-2.298;2023-11-19T03:18:54;35.22;;;6.90;;
34896;SDS011;43407;51.828;-2.298;2023-11-19T03:21:26;41.08;;;7.13;;
34896;SDS011;43407;51.828;-2.298;2023-11-19T03:23:53;29.83;;;5.03;;
34896;SDS011;43407;51.828;-2.298;2023-11-19T03:26:18;36.20;;;6.10;;
34896;SDS011;43407;51.828;-2.298;2023-11-19T03:28:44;26.80;;;5.43;;
34896;SDS011;43407;51.828;-2.298;2023-11-19T03:31:09;26.98;;;4.95;;
34896;SDS011;43407;51.828;-2.298;2023-11-19T03:33:35;27.42;;;5.63;;
34896;SDS011;43407;51.828;-2.298;2023-11-19T03:36:00;22.55;;;4.00;;
34896;SDS011;43407;51.828;-2.298;2023-11-19T03:38:25;21.58;;;3.63;;
34896;SDS011;43407;51.828;-2.298;2023-11-19T03:40:51;16.05;;;3.33;;
34896;SDS011;43407;51.828;-2.298;2023-11-19T03:43:16;13.32;;;3.33;;
34896;SDS011;43407;51.828;-2.298;2023-11-19T03:45:44;13.55;;;2.83;;
34896;SDS011;43407;51.828;-2.298;2023-11-19T03:48:09;15.68;;;2.75;;
34896;SDS011;43407;51.828;-2.298;2023-11-19T03:50:35;10.55;;;3.10;;
34896;SDS011;43407;51.828;-2.298;2023-11-19T03:53:00;11.07;;;2.25;;
34896;SDS011;43407;51.828;-2.298;2023-11-19T03:55:27;11.73;;;2.80;;
34896;SDS011;43407;51.828;-2.298;2023-11-19T03:57:52;11.73;;;2.80;;
34896;SDS011;43407;51.828;-2.298;2023-11-19T04:00:18;11.35;;;3.10;;
34896;SDS011;43407;51.828;-2.298;2023-11-19T04:02:46;12.10;;;2.50;;
34896;SDS011;43407;51.828;-2.298;2023-11-19T04:05:12;13.73;;;2.97;;
34896;SDS011;43407;51.828;-2.298;2023-11-19T04:07:37;23.25;;;3.53;;
34896;SDS011;43407;51.828;-2.298;2023-11-19T04:10:03;28.30;;;4.68;;
34896;SDS011;43407;51.828;-2.298;2023-11-19T04:12:29;23.88;;;4.22;;
34896;SDS011;43407;51.828;-2.298;2023-11-19T04:14:54;21.20;;;4.30;;
34896;SDS011;43407;51.828;-2.298;2023-11-19T04:17:21;22.42;;;4.10;;
34896;SDS011;43407;51.828;-2.298;2023-11-19T04:19:48;23.83;;;4.35;;
34896;SDS011;43407;51.828;-2.298;2023-11-19T04:22:13;28.60;;;5.20;;
34896;SDS011;43407;51.828;-2.298;2023-11-19T04:24:39;26.33;;;5.22;;
34896;SDS011;43407;51.828;-2.298;2023-11-19T04:27:05;23.20;;;4.45;;
34896;SDS011;43407;51.828;-2.298;2023-11-19T04:29:31;24.67;;;5.20;;
34896;SDS011;43407;51.828;-2.298;2023-11-19T04:31:57;29.88;;;5.68;;
34896;SDS011;43407;51.828;-2.298;2023-11-19T04:34:22;25.08;;;4.65;;
34896;SDS011;43407;51.828;-2.298;2023-11-19T04:36:48;30.80;;;4.80;;
34896;SDS011;43407;51.828;-2.298;2023-11-19T04:39:14;30.40;;;4.53;;
34896;SDS011;43407;51.828;-2.298;2023-11-19T04:41:50;27.08;;;4.45;;
34896;SDS011;43407;51.828;-2.298;2023-11-19T04:44:19;30.50;;;5.45;;
34896;SDS011;43407;51.828;-2.298;2023-11-19T04:46:45;28.75;;;5.07;;
34896;SDS011;43407;51.828;-2.298;2023-11-19T04:49:10;22.15;;;4.32;;
34896;SDS011;43407;51.828;-2.298;2023-11-19T04:51:43;24.85;;;5.55;;
34896;SDS011;43407;51.828;-2.298;2023-11-19T04:54:09;30.52;;;4.72;;
34896;SDS011;43407;51.828;-2.298;2023-11-19T04:56:35;27.30;;;4.85;;
34896;SDS011;43407;51.828;-2.298;2023-11-19T04:59:05;20.63;;;4.75;;
34896;SDS011;43407;51.828;-2.298;2023-11-19T05:01:31;19.95;;;4.70;;
34896;SDS011;43407;51.828;-2.298;2023-11-19T05:03:57;26.15;;;4.95;;
34896;SDS011;43407;51.828;-2.298;2023-11-19T05:06:25;29.52;;;5.88;;
34896;SDS011;43407;51.828;-2.298;2023-11-19T05:08:54;28.63;;;5.63;;
34896;SDS011;43407;51.828;-2.298;2023-11-19T05:11:21;31.02;;;5.72;;
34896;SDS011;43407;51.828;-2.298;2023-11-19T05:13:46;23.70;;;4.60;;
34896;SDS011;43407;51.828;-2.298;2023-11-19T05:16:12;24.83;;;4.65;;
34896;SDS011;43407;51.828;-2.298;2023-11-19T05:18:42;22.63;;;4.68;;
34896;SDS011;43407;51.828;-2.298;2023-11-19T05:21:07;26.67;;;5.00;;
34896;SDS011;43407;51.828;-2.298;2023-11-19T05:23:33;39.38;;;6.38;;
34896;SDS011;43407;51.828;-2.298;2023-11-19T05:25:59;38.42;;;6.63;;
34896;SDS011;43407;51.828;-2.298;2023-11-19T05:28:26;32.58;;;5.47;;
34896;SDS011;43407;51.828;-2.298;2023-11-19T05:30:51;38.78;;;5.88;;
34896;SDS011;43407;51.828;-2.298;2023-11-19T05:33:17;41.47;;;6.88;;
34896;SDS011;43407;51.828;-2.298;2023-11-19T05:35:42;34.65;;;6.22;;
34896;SDS011;43407;51.828;-2.298;2023-11-19T05:38:08;35.63;;;7.05;;
34896;SDS011;43407;51.828;-2.298;2023-11-19T05:40:34;43.55;;;7.40;;
34896;SDS011;43407;51.828;-2.298;2023-11-19T05:43:00;37.78;;;6.65;;
34896;SDS011;43407;51.828;-2.298;2023-11-19T05:45:25;37.05;;;6.47;;
34896;SDS011;43407;51.828;-2.298;2023-11-19T05:47:51;37.05;;;6.95;;
34896;SDS011;43407;51.828;-2.298;2023-11-19T05:50:17;35.97;;;7.00;;
34896;SDS011;43407;51.828;-2.298;2023-11-19T05:52:43;29.88;;;5.63;;
34896;SDS011;43407;51.828;-2.298;2023-11-19T05:55:09;38.50;;;6.60;;
34896;SDS011;43407;51.828;-2.298;2023-11-19T05:57:35;40.40;;;6.68;;
34896;SDS011;43407;51.828;-2.298;2023-11-19T06:00:04;34.40;;;6.72;;
34896;SDS011;43407;51.828;-2.298;2023-11-19T06:02:35;34.90;;;6.78;;
34896;SDS011;43407;51.828;-2.298;2023-11-19T06:05:02;25.88;;;5.82;;
34896;SDS011;43407;51.828;-2.298;2023-11-19T06:07:30;39.20;;;6.20;;
34896;SDS011;43407;51.828;-2.298;2023-11-19T06:09:56;38.22;;;6.63;;
34896;SDS011;43407;51.828;-2.298;2023-11-19T06:12:21;33.67;;;6.38;;
34896;SDS011;43407;51.828;-2.298;2023-11-19T06:14:47;26.75;;;5.65;;
34896;SDS011;43407;51.828;-2.298;2023-11-19T06:17:12;29.80;;;6.18;;
34896;SDS011;43407;51.828;-2.298;2023-11-19T06:19:38;34.05;;;6.00;;
34896;SDS011;43407;51.828;-2.298;2023-11-19T06:22:04;32.95;;;6.13;;
34896;SDS011;43407;51.828;-2.298;2023-11-19T06:24:29;26.70;;;5.15;;
34896;SDS011;43407;51.828;-2.298;2023-11-19T06:26:55;38.15;;;7.03;;
34896;SDS011;43407;51.828;-2.298;2023-11-19T06:29:20;25.95;;;5.40;;
34896;SDS011;43407;51.828;-2.298;2023-11-19T06:31:46;32.90;;;6.05;;
34896;SDS011;43407;51.828;-2.298;2023-11-19T06:34:14;26.27;;;4.85;;
34896;SDS011;43407;51.828;-2.298;2023-11-19T06:36:39;32.03;;;5.07;;
34896;SDS011;43407;51.828;-2.298;2023-11-19T06:39:05;30.10;;;5.30;;
34896;SDS011;43407;51.828;-2.298;2023-11-19T06:41:31;25.67;;;4.53;;
34896;SDS011;43407;51.828;-2.298;2023-11-19T06:43:56;26.67;;;5.25;;
34896;SDS011;43407;51.828;-2.298;2023-11-19T06:46:22;25.25;;;5.07;;
34896;SDS011;43407;51.828;-2.298;2023-11-19T06:48:47;31.02;;;5.35;;
34896;SDS011;43407;51.828;-2.298;2023-11-19T06:51:13;23.58;;;5.05;;
34896;SDS011;43407;51.828;-2.298;2023-11-19T06:53:38;35.55;;;5.95;;
34896;SDS011;43407;51.828;-2.298;2023-11-19T06:56:23;29.80;;;5.07;;
34896;SDS011;43407;51.828;-2.298;2023-11-19T06:58:49;39.63;;;5.68;;
34896;SDS011;43407;51.828;-2.298;2023-11-19T07:01:15;31.25;;;5.50;;
34896;SDS011;43407;51.828;-2.298;2023-11-19T07:03:43;29.30;;;5.20;;
34896;SDS011;43407;51.828;-2.298;2023-11-19T07:06:09;30.45;;;5.50;;
34896;SDS011;43407;51.828;-2.298;2023-11-19T07:08:35;33.42;;;5.38;;
34896;SDS011;43407;51.828;-2.298;2023-11-19T07:11:01;32.63;;;5.68;;
34896;SDS011;43407;51.828;-2.298;2023-11-19T07:13:28;29.50;;;5.80;;
34896;SDS011;43407;51.828;-2.298;2023-11-19T07:15:55;29.48;;;4.97;;
34896;SDS011;43407;51.828;-2.298;2023-11-19T07:18:21;29.00;;;5.00;;
34896;SDS011;43407;51.828;-2.298;2023-11-19T07:20:47;26.60;;;4.50;;
34896;SDS011;43407;51.828;-2.298;2023-11-19T07:23:13;29.40;;;5.07;;
34896;SDS011;43407;51.828;-2.298;2023-11-19T07:25:42;19.73;;;4.30;;
34896;SDS011;43407;51.828;-2.298;2023-11-19T07:28:08;22.35;;;4.03;;
34896;SDS011;43407;51.828;-2.298;2023-11-19T07:30:35;22.05;;;3.47;;
34896;SDS011;43407;51.828;-2.298;2023-11-19T07:33:00;14.43;;;3.17;;
34896;SDS011;43407;51.828;-2.298;2023-11-19T07:35:28;17.67;;;3.97;;
34896;SDS011;43407;51.828;-2.298;2023-11-19T07:37:55;19.00;;;3.50;;
34896;SDS011;43407;51.828;-2.298;2023-11-19T07:40:22;10.55;;;2.78;;
34896;SDS011;43407;51.828;-2.298;2023-11-19T07:42:48;19.15;;;4.43;;
34896;SDS011;43407;51.828;-2.298;2023-11-19T07:45:14;21.65;;;3.85;;
34896;SDS011;43407;51.828;-2.298;2023-11-19T07:47:40;28.23;;;4.95;;
34896;SDS011;43407;51.828;-2.298;2023-11-19T07:50:05;24.83;;;4.00;;
34896;SDS011;43407;51.828;-2.298;2023-11-19T07:52:31;24.80;;;4.43;;
34896;SDS011;43407;51.828;-2.298;2023-11-19T07:54:57;31.40;;;5.90;;
34896;SDS011;43407;51.828;-2.298;2023-11-19T07:57:22;37.72;;;5.93;;
34896;SDS011;43407;51.828;-2.298;2023-11-19T07:59:49;32.88;;;5.60;;
34896;SDS011;43407;51.828;-2.298;2023-11-19T08:02:14;30.75;;;4.82;;
34896;SDS011;43407;51.828;-2.298;2023-11-19T08:04:40;28.58;;;5.75;;
34896;SDS011;43407;51.828;-2.298;2023-11-19T08:07:10;37.42;;;6.30;;
34896;SDS011;43407;51.828;-2.298;2023-11-19T08:09:36;25.60;;;5.13;;
34896;SDS011;43407;51.828;-2.298;2023-11-19T08:12:02;25.55;;;6.35;;
34896;SDS011;43407;51.828;-2.298;2023-11-19T08:14:28;29.75;;;6.50;;
34896;SDS011;43407;51.828;-2.298;2023-11-19T08:16:54;34.50;;;5.88;;
34896;SDS011;43407;51.828;-2.298;2023-11-19T08:19:19;36.20;;;6.07;;
34896;SDS011;43407;51.828;-2.298;2023-11-19T08:21:45;36.40;;;6.57;;
34896;SDS011;43407;51.828;-2.298;2023-11-19T08:24:10;39.30;;;6.40;;
34896;SDS011;43407;51.828;-2.298;2023-11-19T08:26:36;28.35;;;5.28;;
34896;SDS011;43407;51.828;-2.298;2023-11-19T08:29:01;28.85;;;6.25;;
34896;SDS011;43407;51.828;-2.298;2023-11-19T08:31:27;27.95;;;6.00;;
34896;SDS011;43407;51.828;-2.298;2023-11-19T08:33:52;25.98;;;5.85;;
34896;SDS011;43407;51.828;-2.298;2023-11-19T08:36:18;35.28;;;5.93;;
34896;SDS011;43407;51.828;-2.298;2023-11-19T08:38:44;40.63;;;6.90;;
34896;SDS011;43407;51.828;-2.298;2023-11-19T08:41:09;32.38;;;5.50;;
34896;SDS011;43407;51.828;-2.298;2023-11-19T08:43:35;35.83;;;6.10;;
34896;SDS011;43407;51.828;-2.298;2023-11-19T08:46:00;32.22;;;6.22;;
34896;SDS011;43407;51.828;-2.298;2023-11-19T08:48:26;31.58;;;5.80;;
34896;SDS011;43407;51.828;-2.298;2023-11-19T08:50:51;34.08;;;6.10;;
34896;SDS011;43407;51.828;-2.298;2023-11-19T08:53:17;31.75;;;5.30;;
34896;SDS011;43407;51.828;-2.298;2023-11-19T08:55:42;36.83;;;6.80;;
34896;SDS011;43407;51.828;-2.298;2023-11-19T08:58:08;32.30;;;5.97;;
34896;SDS011;43407;51.828;-2.298;2023-11-19T09:00:33;34.95;;;5.78;;
34896;SDS011;43407;51.828;-2.298;2023-11-19T09:02:59;26.45;;;5.35;;
34896;SDS011;43407;51.828;-2.298;2023-11-19T09:05:24;37.20;;;6.30;;
34896;SDS011;43407;51.828;-2.298;2023-11-19T09:07:50;39.55;;;6.20;;
34896;SDS011;43407;51.828;-2.298;2023-11-19T09:10:15;33.55;;;6.07;;
34896;SDS011;43407;51.828;-2.298;2023-11-19T09:12:41;29.17;;;5.45;;
34896;SDS011;43407;51.828;-2.298;2023-11-19T09:15:06;29.83;;;5.45;;
34896;SDS011;43407;51.828;-2.298;2023-11-19T09:17:35;30.95;;;5.65;;
34896;SDS011;43407;51.828;-2.298;2023-11-19T09:20:00;28.70;;;5.10;;
34896;SDS011;43407;51.828;-2.298;2023-11-19T09:22:26;33.30;;;5.28;;
34896;SDS011;43407;51.828;-2.298;2023-11-19T09:24:51;24.83;;;4.75;;
34896;SDS011;43407;51.828;-2.298;2023-11-19T09:27:17;30.35;;;6.00;;
34896;SDS011;43407;51.828;-2.298;2023-11-19T09:29:42;30.98;;;4.82;;
34896;SDS011;43407;51.828;-2.298;2023-11-19T09:32:08;30.45;;;5.30;;
34896;SDS011;43407;51.828;-2.298;2023-11-19T09:34:33;24.38;;;4.82;;
34896;SDS011;43407;51.828;-2.298;2023-11-19T09:36:59;24.58;;;5.20;;
34896;SDS011;43407;51.828;-2.298;2023-11-19T09:39:24;26.08;;;5.13;;
34896;SDS011;43407;51.828;-2.298;2023-11-19T09:41:50;28.38;;;4.90;;
34896;SDS011;43407;51.828;-2.298;2023-11-19T09:44:16;23.80;;;5.15;;
34896;SDS011;43407;51.828;-2.298;2023-11-19T09:46:44;31.50;;;5.35;;
34896;SDS011;43407;51.828;-2.298;2023-11-19T09:49:10;33.05;;;5.28;;
34896;SDS011;43407;51.828;-2.298;2023-11-19T09:51:36;29.70;;;5.50;;
34896;SDS011;43407;51.828;-2.298;2023-11-19T09:54:01;28.33;;;5.55;;
34896;SDS011;43407;51.828;-2.298;2023-11-19T09:56:30;29.42;;;5.65;;
34896;SDS011;43407;51.828;-2.298;2023-11-19T09:58:56;26.10;;;5.10;;
34896;SDS011;43407;51.828;-2.298;2023-11-19T10:01:21;29.73;;;5.75;;
34896;SDS011;43407;51.828;-2.298;2023-11-19T10:03:47;36.22;;;5.88;;
34896;SDS011;43407;51.828;-2.298;2023-11-19T10:06:13;33.58;;;5.47;;
34896;SDS011;43407;51.828;-2.298;2023-11-19T10:08:40;29.70;;;5.78;;
34896;SDS011;43407;51.828;-2.298;2023-11-19T10:11:06;31.80;;;5.82;;
34896;SDS011;43407;51.828;-2.298;2023-11-19T10:13:34;24.52;;;4.70;;
34896;SDS011;43407;51.828;-2.298;2023-11-19T10:16:03;34.13;;;5.30;;
34896;SDS011;43407;51.828;-2.298;2023-11-19T10:18:30;22.65;;;4.32;;
34896;SDS011;43407;51.828;-2.298;2023-11-19T10:20:56;23.05;;;4.47;;
34896;SDS011;43407;51.828;-2.298;2023-11-19T10:23:21;19.48;;;3.95;;
34896;SDS011;43407;51.828;-2.298;2023-11-19T10:25:47;15.88;;;3.50;;
34896;SDS011;43407;51.828;-2.298;2023-11-19T10:28:14;18.15;;;3.85;;
34896;SDS011;43407;51.828;-2.298;2023-11-19T10:30:41;17.42;;;4.05;;
34896;SDS011;43407;51.828;-2.298;2023-11-19T10:33:07;20.05;;;4.10;;
34896;SDS011;43407;51.828;-2.298;2023-11-19T10:35:33;33.35;;;5.10;;
34896;SDS011;43407;51.828;-2.298;2023-11-19T10:38:02;27.65;;;4.93;;
34896;SDS011;43407;51.828;-2.298;2023-11-19T10:40:39;23.63;;;4.70;;
34896;SDS011;43407;51.828;-2.298;2023-11-19T10:43:05;20.27;;;4.57;;
34896;SDS011;43407;51.828;-2.298;2023-11-19T10:45:32;18.88;;;4.45;;
34896;SDS011;43407;51.828;-2.298;2023-11-19T10:47:59;25.35;;;4.70;;
34896;SDS011;43407;51.828;-2.298;2023-11-19T10:50:24;21.10;;;5.43;;
34896;SDS011;43407;51.828;-2.298;2023-11-19T10:52:51;30.30;;;5.00;;
34896;SDS011;43407;51.828;-2.298;2023-11-19T10:55:26;29.38;;;5.78;;
34896;SDS011;43407;51.828;-2.298;2023-11-19T10:57:56;24.92;;;4.72;;
34896;SDS011;43407;51.828;-2.298;2023-11-19T11:00:26;29.45;;;5.55;;
34896;SDS011;43407;51.828;-2.298;2023-11-19T11:02:56;23.38;;;5.63;;
34896;SDS011;43407;51.828;-2.298;2023-11-19T11:05:26;22.63;;;4.72;;
34896;SDS011;43407;51.828;-2.298;2023-11-19T11:07:52;23.50;;;4.80;;
34896;SDS011;43407;51.828;-2.298;2023-11-19T11:10:24;37.50;;;6.25;;
34896;SDS011;43407;51.828;-2.298;2023-11-19T11:12:51;33.33;;;5.72;;
34896;SDS011;43407;51.828;-2.298;2023-11-19T11:15:22;29.67;;;4.88;;
34896;SDS011;43407;51.828;-2.298;2023-11-19T11:17:48;35.97;;;6.18;;
34896;SDS011;43407;51.828;-2.298;2023-11-19T11:20:14;24.98;;;5.10;;
34896;SDS011;43407;51.828;-2.298;2023-11-19T11:36:25;25.10;;;4.93;;
34896;SDS011;43407;51.828;-2.298;2023-11-19T11:38:51;22.85;;;4.15;;
34896;SDS011;43407;51.828;-2.298;2023-11-19T11:43:54;20.38;;;3.83;;
34896;SDS011;43407;51.828;-2.298;2023-11-19T11:49:03;14.02;;;3.15;;
34896;SDS011;43407;51.828;-2.298;2023-11-19T11:54:10;13.32;;;2.75;;
34896;SDS011;43407;51.828;-2.298;2023-11-19T11:56:39;15.50;;;2.97;;
34896;SDS011;43407;51.828;-2.298;2023-11-19T11:59:07;16.23;;;3.58;;
34896;SDS011;43407;51.828;-2.298;2023-11-19T12:01:37;21.90;;;3.92;;
34896;SDS011;43407;51.828;-2.298;2023-11-19T12:04:04;14.23;;;3.20;;
34896;SDS011;43407;51.828;-2.298;2023-11-19T12:06:32;19.25;;;3.47;;
34896;SDS011;43407;51.828;-2.298;2023-11-19T12:09:00;16.30;;;3.28;;
34896;SDS011;43407;51.828;-2.298;2023-11-19T12:11:28;20.20;;;3.47;;
34896;SDS011;43407;51.828;-2.298;2023-11-19T12:13:55;17.20;;;3.42;;
34896;SDS011;43407;51.828;-2.298;2023-11-19T12:16:24;15.02;;;2.80;;
34896;SDS011;43407;51.828;-2.298;2023-11-19T12:18:49;13.02;;;2.80;;
34896;SDS011;43407;51.828;-2.298;2023-11-19T12:21:27;14.95;;;3.00;;
34896;SDS011;43407;51.828;-2.298;2023-11-19T12:23:54;15.43;;;3.40;;
34896;SDS011;43407;51.828;-2.298;2023-11-19T12:26:21;9.70;;;2.50;;
34896;SDS011;43407;51.828;-2.298;2023-11-19T12:29:00;12.45;;;2.72;;
34896;SDS011;43407;51.828;-2.298;2023-11-19T12:31:26;14.70;;;2.70;;
34896;SDS011;43407;51.828;-2.298;2023-11-19T12:33:51;9.25;;;2.50;;
34896;SDS011;43407;51.828;-2.298;2023-11-19T12:36:18;14.10;;;2.58;;
34896;SDS011;43407;51.828;-2.298;2023-11-19T12:38:43;10.10;;;2.63;;
34896;SDS011;43407;51.828;-2.298;2023-11-19T12:41:10;8.38;;;2.15;;
34896;SDS011;43407;51.828;-2.298;2023-11-19T12:43:37;10.95;;;2.50;;
34896;SDS011;43407;51.828;-2.298;2023-11-19T12:46:24;11.05;;;2.55;;
34896;SDS011;43407;51.828;-2.298;2023-11-19T12:48:49;7.30;;;2.08;;
34896;SDS011;43407;51.828;-2.298;2023-11-19T12:51:15;11.10;;;2.47;;
34896;SDS011;43407;51.828;-2.298;2023-11-19T12:53:48;12.27;;;2.30;;
34896;SDS011;43407;51.828;-2.298;2023-11-19T12:58:40;9.32;;;2.42;;
34896;SDS011;43407;51.828;-2.298;2023-11-19T13:01:07;10.43;;;2.30;;
34896;SDS011;43407;51.828;-2.298;2023-11-19T13:03:38;12.05;;;2.42;;
34896;SDS011;43407;51.828;-2.298;2023-11-19T13:06:13;14.05;;;3.08;;
34896;SDS011;43407;51.828;-2.298;2023-11-19T13:08:47;9.63;;;2.53;;
34896;SDS011;43407;51.828;-2.298;2023-11-19T13:11:32;20.13;;;3.22;;
34896;SDS011;43407;51.828;-2.298;2023-11-19T13:14:06;14.05;;;3.15;;
34896;SDS011;43407;51.828;-2.298;2023-11-19T13:16:37;12.57;;;2.90;;
34896;SDS011;43407;51.828;-2.298;2023-11-19T13:19:03;13.82;;;2.90;;
34896;SDS011;43407;51.828;-2.298;2023-11-19T13:21:30;14.25;;;3.10;;
34896;SDS011;43407;51.828;-2.298;2023-11-19T13:23:56;13.43;;;3.00;;
34896;SDS011;43407;51.828;-2.298;2023-11-19T13:26:22;14.13;;;2.33;;
34896;SDS011;43407;51.828;-2.298;2023-11-19T13:28:48;12.40;;;2.92;;
34896;SDS011;43407;51.828;-2.298;2023-11-19T13:31:14;11.68;;;2.40;;
34896;SDS011;43407;51.828;-2.298;2023-11-19T13:33:39;9.52;;;2.70;;
34896;SDS011;43407;51.828;-2.298;2023-11-19T13:36:06;8.77;;;2.63;;
34896;SDS011;43407;51.828;-2.298;2023-11-19T13:38:33;13.10;;;2.40;;
34896;SDS011;43407;51.828;-2.298;2023-11-19T13:41:00;12.27;;;2.40;;
34896;SDS011;43407;51.828;-2.298;2023-11-19T13:43:26;9.43;;;2.53;;
34896;SDS011;43407;51.828;-2.298;2023-11-19T13:45:55;11.77;;;3.17;;
34896;SDS011;43407;51.828;-2.298;2023-11-19T13:48:21;10.00;;;2.85;;
34896;SDS011;43407;51.828;-2.298;2023-11-19T13:50:47;10.35;;;2.70;;
34896;SDS011;43407;51.828;-2.298;2023-11-19T13:53:12;15.10;;;3.03;;
34896;SDS011;43407;51.828;-2.298;2023-11-19T13:55:38;15.25;;;2.92;;
34896;SDS011;43407;51.828;-2.298;2023-11-19T13:58:03;10.07;;;2.40;;
34896;SDS011;43407;51.828;-2.298;2023-11-19T14:00:29;13.10;;;3.20;;
34896;SDS011;43407;51.828;-2.298;2023-11-19T14:02:54;9.07;;;2.28;;
34896;SDS011;43407;51.828;-2.298;2023-11-19T14:05:20;12.15;;;3.13;;
34896;SDS011;43407;51.828;-2.298;2023-11-19T14:07:47;12.80;;;3.25;;
34896;SDS011;43407;51.828;-2.298;2023-11-19T14:10:13;13.20;;;2.80;;
34896;SDS011;43407;51.828;-2.298;2023-11-19T14:12:40;10.60;;;2.88;;
34896;SDS011;43407;51.828;-2.298;2023-11-19T14:15:06;9.50;;;2.38;;
34896;SDS011;43407;51.828;-2.298;2023-11-19T14:17:33;15.27;;;3.05;;
34896;SDS011;43407;51.828;-2.298;2023-11-19T14:20:04;15.25;;;3.17;;
34896;SDS011;43407;51.828;-2.298;2023-11-19T14:22:41;11.82;;;2.75;;
34896;SDS011;43407;51.828;-2.298;2023-11-19T14:25:10;13.02;;;2.75;;
34896;SDS011;43407;51.828;-2.298;2023-11-19T14:27:40;17.77;;;3.72;;
34896;SDS011;43407;51.828;-2.298;2023-11-19T14:30:07;11.10;;;2.80;;
34896;SDS011;43407;51.828;-2.298;2023-11-19T14:32:37;16.35;;;3.03;;
34896;SDS011;43407;51.828;-2.298;2023-11-19T14:35:03;14.30;;;2.92;;
34896;SDS011;43407;51.828;-2.298;2023-11-19T14:37:30;14.15;;;3.30;;
34896;SDS011;43407;51.828;-2.298;2023-11-19T14:39:56;15.98;;;3.85;;
34896;SDS011;43407;51.828;-2.298;2023-11-19T14:42:23;17.65;;;3.42;;